Time;durP1;ratioP1;P1;durP2;ratioP2;P2;SDS_P1;SDS_P2;PMS_P1;PMS_P2;Temp;Humidity;BMP_temperature;BMP_pressure;BME280_temperature;BME280_humidity;BME280_pressure;Samples;Min_cycle;Max_cycle;Signal;HPM_P1;HPM_P2
2021/12/07 00:01:46;;;;;;;7.60;6.90;;;2.30;99.90;;;;;;5016450;28;20191;-62
2021/12/07 00:04:12;;;;;;;8.20;6.83;;;2.30;99.90;;;;;;5016379;28;20191;-62
2021/12/07 00:06:38;;;;;;;7.60;7.00;;;2.30;99.90;;;;;;5016629;28;20348;-62
2021/12/07 00:09:08;;;;;;;8.27;7.47;;;2.30;99.90;;;;;;5016329;28;20180;-62
2021/12/07 00:11:33;;;;;;;7.97;7.17;;;2.30;99.90;;;;;;5015952;28;20250;-62
2021/12/07 00:14:00;;;;;;;7.70;7.00;;;2.30;99.90;;;;;;5016046;28;20630;-62
2021/12/07 00:16:27;;;;;;;7.87;7.17;;;2.20;99.90;;;;;;5015906;28;20267;-61
2021/12/07 00:18:53;;;;;;;7.87;7.07;;;2.30;99.90;;;;;;5015450;28;20303;-61
2021/12/07 00:21:22;;;;;;;7.40;6.80;;;2.30;99.90;;;;;;5015617;28;20251;-62
2021/12/07 00:23:49;;;;;;;8.33;7.00;;;2.30;99.90;;;;;;5015646;28;20240;-62
2021/12/07 00:26:15;;;;;;;7.13;6.53;;;2.30;99.90;;;;;;5015291;28;20226;-62
2021/12/07 00:28:42;;;;;;;7.17;6.67;;;2.20;99.90;;;;;;5015307;28;20229;-62
2021/12/07 00:31:16;;;;;;;6.90;6.40;;;2.20;99.90;;;;;;5015309;28;20545;-62
2021/12/07 00:34:58;;;;;;;6.60;6.10;;;2.30;99.90;;;;;;4997616;28;20251;-62
2021/12/07 00:36:44;;;;;;;7.40;6.80;;;2.30;99.90;;;;;;4997852;28;20560;-62
2021/12/07 00:39:10;;;;;;;7.50;6.90;;;2.20;99.90;;;;;;5015352;28;20187;-61
2021/12/07 00:41:36;;;;;;;6.90;6.30;;;2.30;99.90;;;;;;5014752;28;20199;-61
2021/12/07 00:44:03;;;;;;;6.77;6.27;;;2.20;99.90;;;;;;5015026;28;20318;-62
2021/12/07 00:46:29;;;;;;;6.07;5.67;;;2.20;99.90;;;;;;5015032;28;20168;-62
2021/12/07 00:48:55;;;;;;;6.37;5.87;;;2.30;99.90;;;;;;5015181;28;20184;-62
2021/12/07 00:51:21;;;;;;;6.30;5.80;;;2.30;99.90;;;;;;5014899;28;20252;-62
2021/12/07 00:53:47;;;;;;;6.20;5.70;;;2.30;99.90;;;;;;5014929;28;20176;-62
2021/12/07 00:56:13;;;;;;;6.27;5.87;;;2.20;99.90;;;;;;5014736;28;20215;-62
2021/12/07 00:58:39;;;;;;;6.27;5.87;;;2.30;99.90;;;;;;5015237;28;20290;-62
2021/12/07 01:01:08;;;;;;;6.00;5.60;;;2.30;99.90;;;;;;5014740;28;20204;-61
2021/12/07 01:03:35;;;;;;;6.60;6.10;;;2.30;99.90;;;;;;5014436;28;20212;-62
2021/12/07 01:25:04;;;;;;;6.00;5.50;;;2.30;99.90;;;;;;5014887;28;20164;-62
2021/12/07 01:27:29;;;;;;;6.13;5.80;;;2.30;99.90;;;;;;5014276;28;20168;-61
2021/12/07 01:30:19;;;;;;;6.40;5.90;;;2.30;99.90;;;;;;4996649;28;20692;-61
2021/12/07 01:33:34;;;;;;;6.50;6.00;;;2.30;99.90;;;;;;5013199;28;20245;-61
2021/12/07 01:36:01;;;;;;;6.30;5.80;;;2.30;99.90;;;;;;5003350;28;20249;-61
2021/12/07 02:00:15;;;;;;;6.60;6.10;;;2.10;99.90;;;;;;5007953;28;20669;-61
2021/12/07 02:02:41;;;;;;;7.03;6.53;;;2.00;99.90;;;;;;4995847;28;20254;-61
2021/12/07 02:05:09;;;;;;;7.03;6.43;;;2.00;99.90;;;;;;5013833;28;20186;-61
2021/12/07 02:07:35;;;;;;;6.77;6.27;;;2.00;99.90;;;;;;5013690;28;20211;-61
2021/12/07 02:10:07;;;;;;;7.37;6.77;;;2.00;99.90;;;;;;5013458;28;20195;-61
2021/12/07 02:12:44;;;;;;;8.97;6.67;;;2.00;99.90;;;;;;5013317;28;20246;-62
2021/12/07 02:15:23;;;;;;;7.60;6.97;;;2.00;99.90;;;;;;5014017;28;20167;-62
2021/12/07 02:17:50;;;;;;;7.37;6.77;;;2.10;99.90;;;;;;5013662;28;20258;-62
2021/12/07 02:20:18;;;;;;;7.43;6.73;;;2.00;99.90;;;;;;5013312;28;20344;-61
2021/12/07 02:22:44;;;;;;;8.63;7.73;;;2.10;99.90;;;;;;4995658;28;20241;-61
2021/12/07 02:25:12;;;;;;;8.20;7.50;;;2.10;99.90;;;;;;5013249;28;20248;-61
2021/12/07 02:27:38;;;;;;;9.43;7.63;;;2.00;99.90;;;;;;5013489;28;20200;-61
2021/12/07 02:30:08;;;;;;;8.20;7.50;;;2.10;99.90;;;;;;5013226;28;20218;-61
2021/12/07 02:32:34;;;;;;;8.57;7.80;;;2.00;99.90;;;;;;5012958;28;20222;-61
2021/12/07 02:35:00;;;;;;;9.60;8.80;;;2.00;99.90;;;;;;5013163;28;20237;-62
2021/12/07 02:37:29;;;;;;;10.13;9.10;;;2.00;99.90;;;;;;5013117;28;20230;-61
2021/12/07 02:39:56;;;;;;;9.63;8.63;;;2.00;99.90;;;;;;5012996;28;20199;-61
2021/12/07 02:42:23;;;;;;;9.17;8.30;;;1.90;99.90;;;;;;5012961;28;20191;-62
2021/12/07 02:44:49;;;;;;;9.37;8.47;;;1.90;99.90;;;;;;5013254;28;20654;-60
2021/12/07 02:47:15;;;;;;;8.90;8.00;;;1.90;99.90;;;;;;4995310;28;20180;-61
2021/12/07 02:49:41;;;;;;;9.00;8.13;;;1.80;99.90;;;;;;5012982;28;20176;-61
2021/12/07 02:52:08;;;;;;;9.77;8.60;;;1.80;99.90;;;;;;5013586;28;20227;-61
2021/12/07 02:54:36;;;;;;;9.77;8.87;;;1.80;99.90;;;;;;5013003;28;20263;-61
2021/12/07 02:57:06;;;;;;;9.17;8.27;;;1.70;99.90;;;;;;5013144;28;20553;-61
2021/12/07 02:59:33;;;;;;;11.57;9.50;;;1.70;99.90;;;;;;4995164;28;20294;-61
2021/12/07 03:02:04;;;;;;;9.73;8.67;;;1.70;99.90;;;;;;5012911;28;20603;-61
2021/12/07 03:04:38;;;;;;;9.93;8.93;;;1.70;99.90;;;;;;4995183;28;20196;-61
2021/12/07 03:26:12;;;;;;;11.53;9.77;;;1.10;99.90;;;;;;5017115;28;20621;-61
2021/12/07 03:28:49;;;;;;;10.73;9.63;;;1.10;99.90;;;;;;5016586;28;20160;-61
2021/12/07 03:31:17;;;;;;;11.70;9.80;;;1.10;99.90;;;;;;4998830;28;20176;-61
2021/12/07 03:33:42;;;;;;;11.73;10.23;;;1.10;99.90;;;;;;5016770;28;20172;-61
2021/12/07 03:36:10;;;;;;;11.30;10.03;;;1.10;99.90;;;;;;4998527;28;20187;-61
2021/12/07 03:38:36;;;;;;;11.20;10.00;;;1.10;99.90;;;;;;5016073;28;20204;-61
2021/12/07 03:41:03;;;;;;;11.40;10.30;;;1.00;99.90;;;;;;5016361;28;20180;-61
2021/12/07 03:43:29;;;;;;;12.07;10.80;;;1.00;99.90;;;;;;5016071;28;20192;-61
2021/12/07 03:45:55;;;;;;;12.67;11.37;;;1.00;99.90;;;;;;4998476;28;20180;-61
2021/12/07 03:48:21;;;;;;;14.83;11.50;;;1.00;99.90;;;;;;5015972;28;20660;-61
2021/12/07 03:50:47;;;;;;;16.37;13.97;;;1.10;99.90;;;;;;5016445;28;20611;-61
2021/12/07 03:53:14;;;;;;;16.37;12.70;;;1.10;99.90;;;;;;5015825;28;20677;-61
2021/12/07 03:55:40;;;;;;;17.97;12.80;;;1.10;99.90;;;;;;4998307;28;20246;-61
2021/12/07 03:58:06;;;;;;;16.20;13.07;;;1.10;99.90;;;;;;5015759;28;20214;-62
2021/12/07 04:00:35;;;;;;;17.90;13.97;;;1.10;99.90;;;;;;5016056;28;20279;-61
2021/12/07 04:03:07;;;;;;;20.97;15.37;;;1.20;99.90;;;;;;5015732;28;20295;-61
2021/12/07 04:05:33;;;;;;;18.93;14.43;;;1.20;99.90;;;;;;5015915;28;20654;-61
2021/12/07 04:07:59;;;;;;;20.13;14.90;;;1.30;99.90;;;;;;5015887;28;20270;-61
2021/12/07 04:10:25;;;;;;;24.43;16.00;;;1.30;99.90;;;;;;5016204;28;20215;-61
2021/12/07 04:12:52;;;;;;;26.93;16.97;;;1.30;99.90;;;;;;5015745;28;20295;-61
2021/12/07 04:15:19;;;;;;;28.50;16.90;;;1.30;99.90;;;;;;5015247;28;20176;-61
2021/12/07 04:17:45;;;;;;;26.47;17.37;;;1.30;99.90;;;;;;5015049;28;20555;-61
2021/12/07 04:20:14;;;;;;;21.50;16.00;;;1.30;99.90;;;;;;4997898;28;20258;-61
2021/12/07 04:22:40;;;;;;;30.73;19.97;;;1.30;99.90;;;;;;5015226;28;20692;-61
2021/12/07 04:25:08;;;;;;;40.23;21.83;;;1.40;99.90;;;;;;5015321;28;20176;-61
2021/12/07 04:27:38;;;;;;;39.90;23.30;;;1.40;99.90;;;;;;5015360;28;20184;-61
2021/12/07 04:30:09;;;;;;;36.80;21.73;;;1.40;99.90;;;;;;5015202;28;20180;-61
2021/12/07 04:32:35;;;;;;;46.03;24.63;;;1.50;99.90;;;;;;5015429;28;20709;-61
2021/12/07 04:35:01;;;;;;;42.07;23.97;;;1.50;99.90;;;;;;5015158;28;20259;-61
2021/12/07 04:37:26;;;;;;;45.43;24.43;;;1.50;99.90;;;;;;5015055;28;20180;-61
2021/12/07 04:39:52;;;;;;;47.00;25.63;;;1.60;99.90;;;;;;5015250;28;20203;-61
2021/12/07 04:42:18;;;;;;;45.97;26.03;;;1.60;99.90;;;;;;5014911;28;20207;-61
2021/12/07 04:44:51;;;;;;;48.90;26.70;;;1.60;99.90;;;;;;5014953;28;20180;-61
2021/12/07 04:47:25;;;;;;;41.70;24.80;;;1.70;99.90;;;;;;5014951;28;20156;-61
2021/12/07 04:57:53;;;;;;;49.73;27.70;;;1.80;99.90;;;;;;5015005;28;20693;-61
2021/12/07 05:00:26;;;;;;;56.40;28.53;;;1.90;99.90;;;;;;5014771;28;20207;-61
2021/12/07 05:02:59;;;;;;;56.50;29.40;;;1.90;99.90;;;;;;5014614;28;20293;-61
2021/12/07 05:05:31;;;;;;;58.57;30.00;;;2.00;99.90;;;;;;5014903;28;20172;-61
2021/12/07 05:08:00;;;;;;;51.40;27.97;;;2.00;99.90;;;;;;5014834;28;20160;-61
2021/12/07 05:10:39;;;;;;;59.77;30.20;;;2.00;99.90;;;;;;5014567;28;20581;-61
2021/12/07 05:39:52;;;;;;;64.90;29.17;;;2.40;99.90;;;;;;5014353;28;20742;-61
2021/12/07 05:42:19;;;;;;;59.63;29.57;;;2.40;99.90;;;;;;5014202;28;20214;-61
2021/12/07 05:44:45;;;;;;;59.70;30.17;;;2.50;99.90;;;;;;5014488;28;20156;-61
2021/12/07 05:47:11;;;;;;;56.87;30.07;;;2.50;99.90;;;;;;5014170;28;20229;-61
2021/12/07 05:49:37;;;;;;;66.40;31.30;;;2.60;99.90;;;;;;5014687;28;20229;-61
2021/12/07 05:52:03;;;;;;;74.50;31.37;;;2.60;99.90;;;;;;4996354;28;20705;-61
2021/12/07 05:54:29;;;;;;;65.67;32.70;;;2.70;99.90;;;;;;5014312;28;20183;-61
2021/12/07 05:56:55;;;;;;;67.57;34.60;;;2.80;99.90;;;;;;5014245;28;20315;-61
2021/12/07 05:59:21;;;;;;;61.13;30.43;;;2.90;99.90;;;;;;4996238;28;20212;-61
2021/12/07 06:01:47;;;;;;;67.17;31.30;;;3.00;99.90;;;;;;5013915;28;20541;-61
2021/12/07 06:04:13;;;;;;;71.33;31.97;;;3.00;99.90;;;;;;5013869;28;20195;-61
2021/12/07 06:06:39;;;;;;;68.77;32.03;;;3.00;99.90;;;;;;5014348;28;20186;-61
2021/12/07 06:09:06;;;;;;;64.17;31.97;;;3.10;99.90;;;;;;5013822;28;20547;-60
2021/12/07 06:11:32;;;;;;;63.43;34.07;;;3.10;99.90;;;;;;5013741;28;20267;-61
2021/12/07 06:13:57;;;;;;;71.80;32.17;;;3.10;99.90;;;;;;5013786;28;20207;-61
2021/12/07 06:16:24;;;;;;;69.13;32.50;;;3.10;99.90;;;;;;5013780;28;20258;-61
2021/12/07 06:18:50;;;;;;;67.27;33.53;;;3.10;99.90;;;;;;4996008;28;20241;-61
2021/12/07 06:21:15;;;;;;;68.47;32.33;;;3.20;99.90;;;;;;5013674;28;20518;-61
2021/12/07 06:23:42;;;;;;;70.00;35.40;;;3.20;99.90;;;;;;4995884;28;20242;-61
2021/12/07 06:26:07;;;;;;;69.30;34.50;;;3.20;99.90;;;;;;5013942;28;20206;-61
2021/12/07 06:28:33;;;;;;;77.40;35.10;;;3.20;99.90;;;;;;4995980;28;20187;-61
2021/12/07 06:30:59;;;;;;;69.63;33.77;;;3.20;99.90;;;;;;4995923;28;20207;-61
2021/12/07 06:33:27;;;;;;;70.40;32.50;;;3.30;99.90;;;;;;5013500;28;20697;-60
2021/12/07 06:35:59;;;;;;;69.43;31.17;;;3.30;99.90;;;;;;5013518;28;20176;-60
2021/12/07 06:38:30;;;;;;;69.20;32.17;;;3.40;99.90;;;;;;5013572;28;20638;-61
2021/12/07 06:40:56;;;;;;;77.90;33.43;;;3.40;99.90;;;;;;4995858;28;20645;-61
2021/12/07 06:43:22;;;;;;;69.23;32.67;;;3.40;99.90;;;;;;4995796;28;20200;-61
2021/12/07 06:45:49;;;;;;;67.47;31.87;;;3.40;99.90;;;;;;5013382;28;20175;-61
2021/12/07 06:48:15;;;;;;;66.87;32.90;;;3.40;99.90;;;;;;5013425;28;20222;-61
2021/12/07 06:50:41;;;;;;;61.70;32.93;;;3.40;99.90;;;;;;4995776;28;20215;-61
2021/12/07 06:53:07;;;;;;;69.83;35.27;;;3.40;99.90;;;;;;5013400;28;20202;-61
2021/12/07 06:55:33;;;;;;;71.10;34.30;;;3.40;99.90;;;;;;5013417;28;20183;-61
2021/12/07 06:57:59;;;;;;;74.60;31.67;;;3.40;99.90;;;;;;5013522;28;20591;-61
2021/12/07 07:00:25;;;;;;;63.87;32.77;;;3.30;99.90;;;;;;5013278;28;20176;-61
2021/12/07 07:02:51;;;;;;;73.27;31.63;;;3.30;99.90;;;;;;5013404;28;20282;-61
2021/12/07 07:05:17;;;;;;;66.37;30.87;;;3.30;99.90;;;;;;4995749;28;20544;-61
2021/12/07 07:07:43;;;;;;;63.50;32.20;;;3.30;99.90;;;;;;5013336;28;20598;-61
2021/12/07 07:10:12;;;;;;;72.97;32.73;;;3.30;99.90;;;;;;5013555;28;20180;-61
2021/12/07 07:12:39;;;;;;;57.77;31.07;;;3.40;99.90;;;;;;5013367;28;20602;-61
2021/12/07 07:15:06;;;;;;;67.07;31.67;;;3.40;99.90;;;;;;4995627;28;20187;-61
2021/12/07 07:17:32;;;;;;;74.33;32.53;;;3.40;99.90;;;;;;4995482;28;20187;-62
2021/12/07 07:19:58;;;;;;;59.97;31.67;;;3.40;99.90;;;;;;5013027;28;20226;-62
2021/12/07 07:22:24;;;;;;;62.67;31.73;;;3.40;99.90;;;;;;5012927;28;20662;-61
2021/12/07 07:24:50;;;;;;;55.83;28.53;;;3.40;99.90;;;;;;4995409;28;20180;-61
2021/12/07 07:27:16;;;;;;;63.47;31.57;;;3.40;99.90;;;;;;5012929;28;20184;-62
2021/12/07 07:29:41;;;;;;;72.37;32.17;;;3.40;99.90;;;;;;5013010;28;20187;-61
2021/12/07 07:32:07;;;;;;;67.93;30.37;;;3.50;99.90;;;;;;5013167;28;20210;-62
2021/12/07 07:34:33;;;;;;;73.10;31.07;;;3.40;99.90;;;;;;5012875;28;20195;-62
2021/12/07 07:36:59;;;;;;;56.80;30.20;;;3.40;99.90;;;;;;5012806;28;20226;-61
2021/12/07 07:39:25;;;;;;;60.20;30.37;;;3.50;99.90;;;;;;4995085;28;20708;-62
2021/12/07 07:41:51;;;;;;;63.67;29.50;;;3.50;99.90;;;;;;5013286;28;20214;-61
2021/12/07 07:44:17;;;;;;;53.77;28.57;;;3.50;99.90;;;;;;5013371;28;20176;-61
2021/12/07 07:46:42;;;;;;;57.07;29.10;;;3.40;99.90;;;;;;4995427;28;20263;-61
2021/12/07 07:49:08;;;;;;;59.20;28.77;;;3.50;99.90;;;;;;5013350;28;20623;-61
2021/12/07 07:51:35;;;;;;;58.00;30.33;;;3.50;99.90;;;;;;5014786;28;20191;-61
2021/12/07 07:54:02;;;;;;;57.80;28.70;;;3.50;99.90;;;;;;5016579;28;20717;-61
2021/12/07 07:56:28;;;;;;;59.30;30.13;;;3.40;99.90;;;;;;5016303;28;20306;-61
2021/12/07 07:58:55;;;;;;;56.00;29.47;;;3.40;99.90;;;;;;4998583;28;20361;-61
2021/12/07 08:01:23;;;;;;;65.37;30.13;;;3.50;99.90;;;;;;5016389;28;20183;-62
2021/12/07 08:03:50;;;;;;;51.40;28.73;;;3.50;99.90;;;;;;4998402;28;20198;-62
2021/12/07 08:06:17;;;;;;;53.20;29.30;;;3.50;99.90;;;;;;5016084;28;20183;-62
2021/12/07 08:08:43;;;;;;;59.37;28.27;;;3.50;99.90;;;;;;5016161;28;20184;-62
2021/12/07 08:11:09;;;;;;;57.23;28.70;;;3.50;99.90;;;;;;5016006;28;20187;-62
2021/12/07 08:13:35;;;;;;;62.47;28.47;;;3.50;99.90;;;;;;4998280;28;20254;-61
2021/12/07 08:16:00;;;;;;;61.77;28.37;;;3.40;99.90;;;;;;4998356;28;20271;-62
2021/12/07 08:18:26;;;;;;;60.47;29.60;;;3.40;99.90;;;;;;5015821;28;20203;-62
2021/12/07 08:20:52;;;;;;;58.10;29.23;;;3.40;99.90;;;;;;4998257;28;20172;-63
2021/12/07 08:23:18;;;;;;;55.97;28.07;;;3.40;99.90;;;;;;5015790;28;20188;-61
2021/12/07 08:25:47;;;;;;;57.33;28.13;;;3.50;99.90;;;;;;5015774;28;20179;-62
2021/12/07 08:28:15;;;;;;;62.30;28.50;;;3.50;99.90;;;;;;5015644;28;20533;-63
2021/12/07 08:30:42;;;;;;;52.97;28.43;;;3.50;99.90;;;;;;5015316;28;20218;-62
2021/12/07 08:33:09;;;;;;;56.43;27.57;;;3.40;99.90;;;;;;5015569;28;20238;-62
2021/12/07 08:35:35;;;;;;;54.97;26.63;;;3.50;99.90;;;;;;5015253;28;20207;-62
2021/12/07 08:38:01;;;;;;;54.63;25.10;;;3.50;99.90;;;;;;5014972;28;20200;-62
2021/12/07 08:40:30;;;;;;;48.33;27.27;;;3.40;99.90;;;;;;5015425;28;20222;-62
2021/12/07 08:42:56;;;;;;;56.00;25.43;;;3.50;99.90;;;;;;5014890;28;20199;-62
2021/12/07 08:45:22;;;;;;;46.73;25.03;;;3.50;99.90;;;;;;5015030;28;20172;-62
2021/12/07 08:47:49;;;;;;;48.63;24.97;;;3.50;99.90;;;;;;4997536;28;20242;-62
2021/12/07 08:50:21;;;;;;;46.13;25.63;;;3.50;99.90;;;;;;5014875;28;20171;-62
2021/12/07 08:52:49;;;;;;;47.83;24.57;;;3.50;99.90;;;;;;5015246;28;20196;-62
2021/12/07 09:00:32;;;;;;;45.23;24.07;;;3.70;99.90;;;;;;5015450;28;20179;-62
2021/12/07 09:02:58;;;;;;;42.73;23.57;;;3.70;99.90;;;;;;5014814;28;20628;-62
2021/12/07 09:05:25;;;;;;;46.93;24.80;;;3.70;99.90;;;;;;4997420;28;20184;-62
2021/12/07 09:07:51;;;;;;;52.23;23.77;;;3.70;99.90;;;;;;4997441;28;20180;-62
2021/12/07 09:10:18;;;;;;;50.67;24.30;;;3.80;99.90;;;;;;4997337;28;20184;-65
2021/12/07 09:12:44;;;;;;;45.47;22.87;;;3.70;99.90;;;;;;5014837;28;20206;-62
2021/12/07 09:15:10;;;;;;;44.40;22.43;;;3.80;99.90;;;;;;5014886;28;20188;-65
2021/12/07 09:17:37;;;;;;;43.37;22.80;;;3.80;99.90;;;;;;5014767;28;20183;-65
2021/12/07 09:20:10;;;;;;;34.90;22.60;;;3.90;99.90;;;;;;5014667;28;20195;-65
2021/12/07 09:22:36;;;;;;;46.37;24.33;;;3.90;99.90;;;;;;5014796;28;20203;-64
2021/12/07 09:25:03;;;;;;;42.10;23.53;;;3.90;99.90;;;;;;5014609;28;20172;-64
2021/12/07 09:27:29;;;;;;;41.43;22.57;;;3.90;99.90;;;;;;5014965;28;20255;-65
2021/12/07 09:29:55;;;;;;;47.60;23.03;;;4.00;99.90;;;;;;5015110;28;20267;-65
2021/12/07 09:32:21;;;;;;;43.30;22.57;;;4.00;99.90;;;;;;5014518;28;20581;-64
2021/12/07 09:34:47;;;;;;;43.77;23.07;;;4.10;99.90;;;;;;4996860;28;20558;-65
2021/12/07 09:37:12;;;;;;;44.47;21.70;;;4.00;99.90;;;;;;5014696;28;20180;-65
2021/12/07 09:39:39;;;;;;;44.23;22.13;;;4.00;99.90;;;;;;5014290;28;20207;-64
2021/12/07 09:42:05;;;;;;;40.73;23.07;;;4.10;99.90;;;;;;5014651;28;20666;-64
2021/12/07 09:44:31;;;;;;;36.13;22.33;;;4.10;99.90;;;;;;5014276;28;20344;-64
2021/12/07 09:46:57;;;;;;;34.97;21.50;;;4.10;99.90;;;;;;5014554;28;20226;-64
2021/12/07 09:49:23;;;;;;;42.77;21.13;;;4.10;99.90;;;;;;5014204;28;20259;-64
2021/12/07 09:51:49;;;;;;;36.03;21.10;;;4.10;99.90;;;;;;5014062;28;20706;-64
2021/12/07 09:54:15;;;;;;;34.63;21.43;;;4.10;99.90;;;;;;5014389;28;20288;-64
2021/12/07 09:56:40;;;;;;;34.70;21.07;;;4.20;99.90;;;;;;5014387;28;20250;-63
2021/12/07 09:59:08;;;;;;;39.50;20.73;;;4.20;99.90;;;;;;4996411;28;20250;-64
2021/12/07 10:01:35;;;;;;;39.03;21.43;;;4.20;99.90;;;;;;4996365;28;20175;-64
2021/12/07 10:04:01;;;;;;;36.23;19.83;;;4.10;99.90;;;;;;5013873;28;20192;-63
2021/12/07 10:06:26;;;;;;;41.57;21.37;;;4.10;99.90;;;;;;5013866;28;20238;-63
2021/12/07 10:08:52;;;;;;;35.50;19.73;;;4.10;99.90;;;;;;4996268;28;20622;-64
2021/12/07 10:11:18;;;;;;;32.37;19.23;;;4.10;99.90;;;;;;4996211;28;20188;-65
2021/12/07 10:13:46;;;;;;;37.63;18.87;;;4.10;99.90;;;;;;5013521;28;20254;-65
2021/12/07 10:16:14;;;;;;;32.63;19.33;;;4.10;99.90;;;;;;5014077;28;20603;-63
2021/12/07 10:18:42;;;;;;;34.87;18.63;;;4.10;99.90;;;;;;4996088;28;20207;-62
2021/12/07 10:21:17;;;;;;;36.23;18.60;;;4.10;99.90;;;;;;5014014;28;20268;-62
2021/12/07 10:23:49;;;;;;;31.67;18.93;;;4.10;99.90;;;;;;5014040;28;20713;-61
2021/12/07 10:26:21;;;;;;;29.23;17.17;;;4.00;99.90;;;;;;4996001;28;20179;-61
2021/12/07 10:28:55;;;;;;;31.60;17.70;;;4.00;99.90;;;;;;5013631;28;20178;-62
2021/12/07 10:31:36;;;;;;;38.93;18.63;;;4.00;99.90;;;;;;5013554;28;20170;-63
2021/12/07 10:34:17;;;;;;;27.23;17.13;;;4.00;99.90;;;;;;5013913;28;20214;-61
2021/12/07 10:36:56;;;;;;;30.53;16.27;;;4.00;99.90;;;;;;4995896;28;20180;-62
2021/12/07 10:39:21;;;;;;;26.53;17.43;;;4.00;99.90;;;;;;5013457;28;20709;-62
2021/12/07 10:42:03;;;;;;;32.53;18.30;;;4.00;99.90;;;;;;4995834;28;20227;-61
2021/12/07 10:44:32;;;;;;;36.27;17.70;;;4.00;99.90;;;;;;5013431;28;20236;-61
2021/12/07 10:47:07;;;;;;;36.10;19.03;;;4.00;99.90;;;;;;5013649;28;20195;-61
2021/12/07 10:49:35;;;;;;;26.77;15.97;;;4.00;99.90;;;;;;5013781;28;20168;-62
2021/12/07 10:52:26;;;;;;;36.70;19.73;;;4.10;99.90;;;;;;5013319;28;20200;-63
2021/12/07 10:55:01;;;;;;;30.80;18.43;;;4.10;99.90;;;;;;5013459;28;20578;-61
2021/12/07 10:57:38;;;;;;;25.33;16.03;;;4.10;99.90;;;;;;4995865;28;20203;-62
2021/12/07 11:00:25;;;;;;;35.87;17.60;;;4.20;99.90;;;;;;5013632;28;20733;-62
2021/12/07 11:03:04;;;;;;;22.90;16.07;;;4.20;99.90;;;;;;5013257;28;20211;-61
2021/12/07 11:05:39;;;;;;;32.50;17.97;;;4.30;99.90;;;;;;5013768;28;20233;-62
2021/12/07 11:08:08;;;;;;;30.77;16.93;;;4.30;99.90;;;;;;4995670;28;20219;-62
2021/12/07 11:10:38;;;;;;;28.27;18.17;;;4.30;99.90;;;;;;4995692;28;20184;-62
2021/12/07 11:15:35;;;;;;;32.60;18.93;;;4.40;99.90;;;;;;5013450;28;20258;-62
2021/12/07 11:18:09;;;;;;;38.13;18.93;;;4.50;99.90;;;;;;5013110;28;20172;-62
2021/12/07 11:20:36;;;;;;;33.00;18.63;;;4.60;99.90;;;;;;5013741;28;20161;-61
2021/12/07 11:23:05;;;;;;;33.07;19.10;;;4.50;99.90;;;;;;5013143;28;20199;-62
2021/12/07 11:31:35;;;;;;;30.87;17.00;;;4.50;99.90;;;;;;5017248;28;20302;-61
2021/12/07 11:34:06;;;;;;;39.47;18.47;;;4.50;99.90;;;;;;4999284;28;20537;-62
2021/12/07 11:36:41;;;;;;;27.07;18.13;;;4.60;99.90;;;;;;5016988;28;20750;-61
2021/12/07 11:39:39;;;;;;;40.27;18.13;;;4.70;99.90;;;;;;4998989;28;20677;-63
2021/12/07 11:42:19;;;;;;;28.83;17.93;;;4.80;99.90;;;;;;5017044;28;20202;-63
2021/12/07 11:44:53;;;;;;;33.63;18.13;;;4.90;99.90;;;;;;5016853;28;20199;-63
2021/12/07 11:47:41;;;;;;;29.33;16.67;;;4.80;99.90;;;;;;5016600;28;20206;-64
2021/12/07 11:50:21;;;;;;;25.10;16.23;;;4.70;99.90;;;;;;5016406;28;20175;-63
2021/12/07 11:52:50;;;;;;;29.40;16.23;;;4.70;99.90;;;;;;5016664;28;20282;-63
2021/12/07 11:55:18;;;;;;;34.80;16.50;;;4.70;99.90;;;;;;4998718;28;20614;-63
2021/12/07 11:57:44;;;;;;;31.67;16.83;;;4.70;99.90;;;;;;5016540;28;20624;-63
2021/12/07 12:00:16;;;;;;;30.10;15.50;;;4.70;99.90;;;;;;4998551;28;20301;-63
2021/12/07 12:02:41;;;;;;;29.57;16.20;;;4.70;99.90;;;;;;5016275;28;20198;-63
2021/12/07 12:05:08;;;;;;;32.37;15.03;;;4.80;99.90;;;;;;4998561;28;20184;-63
2021/12/07 12:07:34;;;;;;;32.00;14.70;;;4.80;99.90;;;;;;5016083;28;20231;-63
2021/12/07 12:10:00;;;;;;;30.40;14.20;;;4.80;99.90;;;;;;4998459;28;20668;-63
2021/12/07 12:12:54;;;;;;;25.13;15.47;;;5.10;99.90;;;;;;5016190;28;20200;-63
2021/12/07 12:16:00;;;;;;;21.10;13.20;;;5.30;99.90;;;;;;5016008;28;20549;-63
2021/12/07 12:19:03;;;;;;;17.17;12.70;;;5.60;99.90;;;;;;5012640;28;20222;-63
2021/12/07 12:21:58;;;;;;;23.93;13.33;;;5.60;99.90;;;;;;5015850;28;20175;-63
2021/12/07 12:24:33;;;;;;;17.50;11.10;;;5.50;99.90;;;;;;5016163;28;20160;-63
2021/12/07 12:27:16;;;;;;;23.83;11.13;;;5.20;99.90;;;;;;4998131;28;20187;-63
2021/12/07 12:29:45;;;;;;;18.37;11.20;;;5.10;99.90;;;;;;5016004;28;20219;-63
2021/12/07 12:32:11;;;;;;;18.17;10.67;;;5.00;99.90;;;;;;4998269;28;20211;-63
2021/12/07 12:34:49;;;;;;;14.00;10.77;;;5.00;99.90;;;;;;5015615;28;20179;-63
2021/12/07 12:37:18;;;;;;;15.23;9.33;;;5.00;99.90;;;;;;5015400;28;20184;-63
2021/12/07 12:40:09;;;;;;;13.43;9.10;;;5.20;99.90;;;;;;5015781;28;20208;-66
2021/12/07 12:42:45;;;;;;;10.87;8.53;;;5.20;99.90;;;;;;4998348;28;20291;-64
2021/12/07 12:45:30;;;;;;;16.00;8.83;;;5.40;99.90;;;;;;5015707;28;20176;-63
2021/12/07 12:48:01;;;;;;;20.10;9.13;;;5.50;99.90;;;;;;5015409;28;20156;-63
2021/12/07 12:50:49;;;;;;;14.00;8.40;;;5.80;99.90;;;;;;4997743;28;20186;-63
2021/12/07 12:53:21;;;;;;;19.27;8.40;;;6.00;99.90;;;;;;5015271;28;20666;-62
2021/12/07 12:56:03;;;;;;;10.77;7.90;;;6.10;99.90;;;;;;4997708;28;20616;-62
2021/12/07 12:58:31;;;;;;;17.50;8.70;;;6.10;99.90;;;;;;5015383;28;20663;-63
2021/12/07 13:00:56;;;;;;;15.67;8.23;;;6.10;99.90;;;;;;4997695;28;20176;-63
2021/12/07 13:03:22;;;;;;;15.33;7.37;;;6.20;99.90;;;;;;4997313;28;20306;-63
2021/12/07 13:06:00;;;;;;;13.60;7.13;;;6.30;99.90;;;;;;4997429;28;20184;-64
2021/12/07 13:08:27;;;;;;;12.00;7.17;;;6.30;99.90;;;;;;5015317;28;20222;-63
2021/12/07 13:10:55;;;;;;;12.60;6.90;;;6.30;99.90;;;;;;5015424;28;20219;-63
2021/12/07 13:13:39;;;;;;;11.00;6.93;;;6.30;99.90;;;;;;5014890;28;20235;-63
2021/12/07 13:16:17;;;;;;;11.20;6.60;;;6.40;99.90;;;;;;5015485;28;20171;-63
2021/12/07 13:18:44;;;;;;;15.57;6.73;;;6.40;99.90;;;;;;5014929;28;20623;-63
2021/12/07 13:21:25;;;;;;;9.63;6.70;;;6.40;99.90;;;;;;5015093;28;20180;-63
2021/12/07 13:23:59;;;;;;;13.30;6.23;;;6.40;99.90;;;;;;5014735;28;20247;-63
2021/12/07 13:26:25;;;;;;;11.97;6.80;;;6.40;99.90;;;;;;5014916;28;20175;-63
2021/12/07 13:29:14;;;;;;;13.80;6.83;;;6.40;99.90;;;;;;5014835;28;20551;-63
2021/12/07 13:31:51;;;;;;;11.10;6.57;;;6.30;99.90;;;;;;5014646;28;20263;-63
2021/12/07 13:34:25;;;;;;;10.03;6.30;;;6.20;99.90;;;;;;5015058;28;20587;-63
2021/12/07 13:36:59;;;;;;;6.90;5.70;;;6.10;99.90;;;;;;5015068;28;20172;-63
2021/12/07 13:39:25;;;;;;;11.37;5.87;;;6.00;99.90;;;;;;5014481;28;20566;-63
2021/12/07 13:41:57;;;;;;;9.20;6.17;;;6.00;99.90;;;;;;5014609;28;20199;-64
2021/12/07 13:44:23;;;;;;;10.50;5.80;;;6.00;99.90;;;;;;4996904;28;20191;-63
2021/12/07 13:46:59;;;;;;;10.60;6.23;;;6.00;99.90;;;;;;5014680;28;20572;-63
2021/12/07 13:49:24;;;;;;;11.57;6.07;;;5.90;99.90;;;;;;5013524;28;20187;-63
2021/12/07 13:51:52;;;;;;;12.53;6.40;;;5.80;99.90;;;;;;4998330;28;20204;-61
2021/12/07 13:54:20;;;;;;;10.00;6.47;;;5.70;99.90;;;;;;5014512;28;20176;-63
2021/12/07 13:56:47;;;;;;;13.20;6.47;;;5.50;99.90;;;;;;4996520;28;20183;-63
2021/12/07 13:59:16;;;;;;;9.33;5.80;;;5.40;99.90;;;;;;5014562;28;20239;-64
2021/12/07 14:01:52;;;;;;;11.07;6.43;;;5.30;99.90;;;;;;5014223;28;20203;-64
2021/12/07 14:04:19;;;;;;;15.40;6.50;;;5.30;99.90;;;;;;5014007;28;20186;-65
2021/12/07 14:06:47;;;;;;;8.30;5.80;;;5.20;99.90;;;;;;4996430;28;20245;-64
2021/12/07 14:09:13;;;;;;;9.20;6.40;;;5.20;99.90;;;;;;5013911;28;20176;-64
2021/12/07 14:11:39;;;;;;;13.30;6.53;;;5.20;99.90;;;;;;5013793;28;20180;-64
2021/12/07 14:14:15;;;;;;;7.80;6.00;;;5.10;99.90;;;;;;4996171;28;20764;-64
2021/12/07 14:16:41;;;;;;;10.03;6.43;;;5.00;99.90;;;;;;5014426;28;20209;-63
2021/12/07 14:19:08;;;;;;;11.47;6.33;;;5.00;99.90;;;;;;4996332;28;20203;-61
2021/12/07 14:21:34;;;;;;;9.50;6.33;;;4.80;99.90;;;;;;5014481;28;20172;-61
2021/12/07 14:24:07;;;;;;;8.47;6.87;;;4.80;99.90;;;;;;4996060;28;20274;-61
2021/12/07 14:26:36;;;;;;;16.87;7.27;;;4.70;99.90;;;;;;5014101;28;20523;-61
2021/12/07 14:29:18;;;;;;;12.17;6.47;;;4.70;99.90;;;;;;5013947;28;20189;-62
2021/12/07 14:31:51;;;;;;;9.77;6.40;;;4.60;99.90;;;;;;5013570;28;20290;-62
2021/12/07 14:34:24;;;;;;;8.23;6.03;;;4.50;99.90;;;;;;4995895;28;20267;-63
2021/12/07 14:36:57;;;;;;;8.13;6.10;;;4.50;99.90;;;;;;5014307;28;20164;-62
2021/12/07 14:39:40;;;;;;;15.67;6.23;;;4.50;99.90;;;;;;5013686;28;20195;-62
2021/12/07 14:42:18;;;;;;;8.77;6.33;;;4.40;99.90;;;;;;5014023;28;20254;-61
2021/12/07 14:44:48;;;;;;;9.20;6.70;;;4.40;99.90;;;;;;5013442;28;20612;-61